JAL192 RJNK-RJTT
Flight info
| Callsign | JAL192 |
|---|---|
| Flight time | 0h 43m |
| Altitude | 31000 |
| Route | OHNNO Y383 KCC Y295 GAKKI Y71 XAC |
| Aircraft | B738/M-SDE2E3FGHIRWXY/LB1 |
Departure
| Time | 2026-05-06 12:14 |
|---|---|
| Airport | Komatsu Airport / JASDF Komatsu Air Base (RJNK) |
Arrival
| Time | 2026-05-06 12:57 |
|---|---|
| Airport | Tokyo Haneda International Airport (RJTT) |
| Time | Latitude | Longitude | Altitude | Speed | Heading |
|---|---|---|---|---|---|
| 2026-05-06 12:08 | 36.40114 | 136.41371 | 25 ft | 0 kts | 325° |
| 2026-05-06 12:08 | 36.40114 | 136.41372 | 25 ft | 1 kts | 325° |
| 2026-05-06 12:08 | 36.40093 | 136.41389 | 30 ft | 4 kts | 325° |
| 2026-05-06 12:09 | 36.40071 | 136.41408 | 29 ft | 4 kts | 325° |
| 2026-05-06 12:09 | 36.40051 | 136.41423 | 27 ft | 4 kts | 349° |
| 2026-05-06 12:09 | 36.40030 | 136.41417 | 30 ft | 4 kts | 48° |
| 2026-05-06 12:09 | 36.40019 | 136.41400 | 28 ft | 1 kts | 56° |
| 2026-05-06 12:10 | 36.40018 | 136.41398 | 28 ft | 1 kts | 56° |
| 2026-05-06 12:12 | 36.40038 | 136.41434 | 28 ft | 12 kts | 56° |
| 2026-05-06 12:12 | 36.40105 | 136.41558 | 29 ft | 23 kts | 57° |
| 2026-05-06 12:12 | 36.40209 | 136.41759 | 30 ft | 29 kts | 77° |
| 2026-05-06 12:13 | 36.40088 | 136.41922 | 33 ft | 27 kts | 171° |
| 2026-05-06 12:13 | 36.39956 | 136.41764 | 33 ft | 39 kts | 234° |
| 2026-05-06 12:13 | 36.39647 | 136.41209 | 31 ft | 115 kts | 235° |
| 2026-05-06 12:13 | 36.39073 | 136.40183 | 114 ft | 166 kts | 235° |
| 2026-05-06 12:14 | 36.38415 | 136.38957 | 786 ft | 175 kts | 235° |
| 2026-05-06 12:14 | 36.37739 | 136.37766 | 1795 ft | 167 kts | 232° |
| 2026-05-06 12:14 | 36.37032 | 136.36543 | 2368 ft | 187 kts | 231° |
| 2026-05-06 12:14 | 36.36219 | 136.35130 | 2618 ft | 213 kts | 232° |
| 2026-05-06 12:15 | 36.35341 | 136.33586 | 3009 ft | 227 kts | 232° |
| 2026-05-06 12:15 | 36.34423 | 136.31962 | 3574 ft | 233 kts | 232° |
| 2026-05-06 12:15 | 36.33483 | 136.30295 | 4143 ft | 242 kts | 233° |
| 2026-05-06 12:15 | 36.32420 | 136.28605 | 4615 ft | 254 kts | 219° |
| 2026-05-06 12:16 | 36.30857 | 136.27620 | 5435 ft | 256 kts | 192° |
| 2026-05-06 12:16 | 36.29080 | 136.27677 | 6287 ft | 261 kts | 165° |
| 2026-05-06 12:16 | 36.27431 | 136.28692 | 7027 ft | 270 kts | 149° |
| 2026-05-06 12:16 | 36.25870 | 136.30060 | 7719 ft | 278 kts | 146° |
| 2026-05-06 12:17 | 36.24305 | 136.31508 | 8478 ft | 284 kts | 145° |
| 2026-05-06 12:17 | 36.22711 | 136.32992 | 9217 ft | 290 kts | 145° |
| 2026-05-06 12:17 | 36.21081 | 136.34503 | 9936 ft | 297 kts | 144° |
| 2026-05-06 12:17 | 36.19416 | 136.36034 | 10488 ft | 308 kts | 145° |
| 2026-05-06 12:18 | 36.17658 | 136.37642 | 10996 ft | 319 kts | 146° |
| 2026-05-06 12:18 | 36.15857 | 136.39281 | 11724 ft | 322 kts | 146° |
| 2026-05-06 12:18 | 36.14043 | 136.40929 | 12472 ft | 325 kts | 146° |
| 2026-05-06 12:18 | 36.12216 | 136.42585 | 13229 ft | 326 kts | 147° |
| 2026-05-06 12:19 | 36.10363 | 136.44261 | 13891 ft | 333 kts | 147° |
| 2026-05-06 12:19 | 36.08479 | 136.45963 | 14525 ft | 337 kts | 147° |
| 2026-05-06 12:19 | 36.06575 | 136.47682 | 15180 ft | 341 kts | 147° |
| 2026-05-06 12:19 | 36.04647 | 136.49419 | 15807 ft | 345 kts | 147° |
| 2026-05-06 12:20 | 36.02693 | 136.51180 | 16411 ft | 349 kts | 147° |
| 2026-05-06 12:20 | 36.00719 | 136.52957 | 17038 ft | 354 kts | 147° |
| 2026-05-06 12:20 | 35.98736 | 136.54741 | 17663 ft | 358 kts | 147° |
| 2026-05-06 12:20 | 35.96705 | 136.56547 | 18270 ft | 361 kts | 150° |
| 2026-05-06 12:21 | 35.94472 | 136.57969 | 18815 ft | 361 kts | 160° |
| 2026-05-06 12:21 | 35.92139 | 136.59143 | 19386 ft | 364 kts | 162° |
| 2026-05-06 12:21 | 35.89760 | 136.60291 | 19928 ft | 367 kts | 162° |
| 2026-05-06 12:21 | 35.87366 | 136.61441 | 20433 ft | 372 kts | 162° |
| 2026-05-06 12:22 | 35.84968 | 136.62603 | 20968 ft | 375 kts | 162° |
| 2026-05-06 12:22 | 35.82527 | 136.63796 | 21472 ft | 379 kts | 162° |
| 2026-05-06 12:22 | 35.80131 | 136.64978 | 21966 ft | 382 kts | 162° |
| 2026-05-06 12:22 | 35.77645 | 136.66209 | 22472 ft | 386 kts | 162° |
| 2026-05-06 12:23 | 35.75142 | 136.67452 | 22982 ft | 389 kts | 162° |
| 2026-05-06 12:23 | 35.72616 | 136.68708 | 23512 ft | 393 kts | 162° |
| 2026-05-06 12:23 | 35.70068 | 136.69974 | 23956 ft | 396 kts | 163° |
| 2026-05-06 12:23 | 35.67508 | 136.71246 | 24427 ft | 397 kts | 163° |
| 2026-05-06 12:24 | 35.64952 | 136.72516 | 24951 ft | 396 kts | 164° |
| 2026-05-06 12:24 | 35.62397 | 136.73784 | 25431 ft | 397 kts | 165° |
| 2026-05-06 12:24 | 35.59833 | 136.75056 | 25900 ft | 397 kts | 166° |
| 2026-05-06 12:24 | 35.57269 | 136.76326 | 26351 ft | 398 kts | 166° |
| 2026-05-06 12:25 | 35.54730 | 136.77582 | 26796 ft | 399 kts | 167° |
| 2026-05-06 12:25 | 35.52150 | 136.78858 | 27237 ft | 400 kts | 168° |
| 2026-05-06 12:25 | 35.49562 | 136.80136 | 27678 ft | 401 kts | 168° |
| 2026-05-06 12:25 | 35.46965 | 136.81418 | 28059 ft | 403 kts | 168° |
| 2026-05-06 12:26 | 35.44354 | 136.82706 | 28505 ft | 404 kts | 169° |
| 2026-05-06 12:26 | 35.41744 | 136.83995 | 28975 ft | 404 kts | 169° |
| 2026-05-06 12:26 | 35.39133 | 136.85283 | 29347 ft | 406 kts | 170° |
| 2026-05-06 12:26 | 35.36499 | 136.86579 | 29705 ft | 408 kts | 170° |
| 2026-05-06 12:27 | 35.34752 | 136.87439 | 29938 ft | 409 kts | 170° |
| 2026-05-06 12:27 | 35.32107 | 136.88741 | 30287 ft | 410 kts | 170° |
| 2026-05-06 12:27 | 35.29460 | 136.90092 | 30590 ft | 418 kts | 166° |
| 2026-05-06 12:27 | 35.26122 | 136.92669 | 31012 ft | 438 kts | 153° |
| 2026-05-06 12:28 | 35.24547 | 136.94333 | 31130 ft | 449 kts | 147° |
| 2026-05-06 12:28 | 35.23232 | 136.96064 | 31098 ft | 464 kts | 141° |
| 2026-05-06 12:28 | 35.21869 | 136.98157 | 31150 ft | 470 kts | 139° |
| 2026-05-06 12:29 | 35.17727 | 137.04604 | 31141 ft | 481 kts | 140° |
| 2026-05-06 12:29 | 35.13416 | 137.10970 | 31137 ft | 491 kts | 140° |
| 2026-05-06 12:30 | 35.09020 | 137.17404 | 31134 ft | 501 kts | 140° |
| 2026-05-06 12:30 | 35.04534 | 137.24006 | 31134 ft | 508 kts | 140° |
| 2026-05-06 12:31 | 35.00044 | 137.30678 | 31122 ft | 508 kts | 139° |
| 2026-05-06 12:31 | 34.95561 | 137.37346 | 31122 ft | 508 kts | 139° |
| 2026-05-06 12:32 | 34.91077 | 137.43992 | 31117 ft | 507 kts | 139° |
| 2026-05-06 12:32 | 34.86623 | 137.50575 | 31138 ft | 506 kts | 139° |
| 2026-05-06 12:33 | 34.82155 | 137.57178 | 31112 ft | 505 kts | 139° |
| 2026-05-06 12:33 | 34.77736 | 137.63852 | 31124 ft | 511 kts | 134° |
| 2026-05-06 12:34 | 34.75916 | 137.67636 | 31138 ft | 524 kts | 123° |
| 2026-05-06 12:34 | 34.74578 | 137.71790 | 31130 ft | 534 kts | 114° |
| 2026-05-06 12:34 | 34.73789 | 137.76245 | 31136 ft | 544 kts | 103° |
| 2026-05-06 12:34 | 34.73373 | 137.80834 | 31145 ft | 545 kts | 101° |
| 2026-05-06 12:35 | 34.72666 | 137.89962 | 31129 ft | 545 kts | 101° |
| 2026-05-06 12:35 | 34.71809 | 137.99091 | 31136 ft | 543 kts | 103° |
| 2026-05-06 12:36 | 34.71243 | 138.08269 | 31140 ft | 547 kts | 95° |
| 2026-05-06 12:36 | 34.71348 | 138.17524 | 31124 ft | 548 kts | 93° |
| 2026-05-06 12:37 | 34.71497 | 138.26766 | 31122 ft | 546 kts | 94° |
| 2026-05-06 12:37 | 34.71560 | 138.35994 | 31132 ft | 544 kts | 95° |
| 2026-05-06 12:38 | 34.71576 | 138.45043 | 31137 ft | 543 kts | 95° |
| 2026-05-06 12:38 | 34.71581 | 138.49630 | 31001 ft | 544 kts | 95° |
| 2026-05-06 12:38 | 34.71585 | 138.54243 | 30284 ft | 547 kts | 94° |
| 2026-05-06 12:39 | 34.71590 | 138.58873 | 29449 ft | 547 kts | 94° |
| 2026-05-06 12:39 | 34.71595 | 138.63446 | 28455 ft | 550 kts | 94° |
| 2026-05-06 12:39 | 34.71599 | 138.68096 | 27565 ft | 550 kts | 94° |
| 2026-05-06 12:39 | 34.71601 | 138.72754 | 26655 ft | 550 kts | 94° |
| 2026-05-06 12:40 | 34.71602 | 138.77405 | 25675 ft | 552 kts | 94° |
| 2026-05-06 12:40 | 34.71599 | 138.82057 | 25008 ft | 546 kts | 94° |
| 2026-05-06 12:40 | 34.71583 | 138.86658 | 24298 ft | 542 kts | 95° |
| 2026-05-06 12:40 | 34.71556 | 138.91226 | 23570 ft | 538 kts | 95° |
| 2026-05-06 12:41 | 34.71528 | 138.95643 | 22822 ft | 533 kts | 95° |
| 2026-05-06 12:41 | 34.71490 | 139.00117 | 22149 ft | 526 kts | 94° |
| 2026-05-06 12:41 | 34.71464 | 139.04523 | 21636 ft | 517 kts | 94° |
| 2026-05-06 12:41 | 34.71444 | 139.08878 | 21075 ft | 509 kts | 94° |
| 2026-05-06 12:42 | 34.71422 | 139.13086 | 20561 ft | 501 kts | 94° |
| 2026-05-06 12:42 | 34.71396 | 139.17288 | 20054 ft | 493 kts | 94° |
| 2026-05-06 12:42 | 34.71367 | 139.21435 | 19559 ft | 487 kts | 94° |
| 2026-05-06 12:42 | 34.71335 | 139.25520 | 19057 ft | 481 kts | 94° |
| 2026-05-06 12:43 | 34.71304 | 139.29425 | 18587 ft | 475 kts | 94° |
| 2026-05-06 12:43 | 34.71271 | 139.33425 | 18043 ft | 470 kts | 94° |
| 2026-05-06 12:43 | 34.71237 | 139.37368 | 17549 ft | 463 kts | 94° |
| 2026-05-06 12:43 | 34.71496 | 139.41245 | 17061 ft | 462 kts | 78° |
| 2026-05-06 12:44 | 34.72609 | 139.44786 | 16584 ft | 458 kts | 61° |
| 2026-05-06 12:44 | 34.74412 | 139.47889 | 16051 ft | 452 kts | 45° |
| 2026-05-06 12:44 | 34.76749 | 139.50397 | 15464 ft | 445 kts | 36° |
| 2026-05-06 12:44 | 34.79176 | 139.52702 | 14914 ft | 441 kts | 35° |
| 2026-05-06 12:45 | 34.81582 | 139.54976 | 14442 ft | 435 kts | 35° |
| 2026-05-06 12:45 | 34.83951 | 139.57234 | 13965 ft | 430 kts | 36° |
| 2026-05-06 12:45 | 34.88556 | 139.61691 | 13253 ft | 412 kts | 36° |
| 2026-05-06 12:46 | 34.90777 | 139.63863 | 12833 ft | 406 kts | 37° |
| 2026-05-06 12:46 | 34.92971 | 139.66016 | 12333 ft | 402 kts | 37° |
| 2026-05-06 12:46 | 34.95134 | 139.68142 | 11890 ft | 397 kts | 37° |
| 2026-05-06 12:46 | 34.97250 | 139.70224 | 11360 ft | 386 kts | 37° |
| 2026-05-06 12:47 | 34.99326 | 139.72266 | 10740 ft | 378 kts | 37° |
| 2026-05-06 12:47 | 35.01330 | 139.74239 | 10265 ft | 368 kts | 37° |
| 2026-05-06 12:47 | 35.03289 | 139.76169 | 9895 ft | 355 kts | 37° |
| 2026-05-06 12:47 | 35.05143 | 139.77997 | 9904 ft | 331 kts | 37° |
| 2026-05-06 12:48 | 35.06898 | 139.79729 | 9692 ft | 318 kts | 37° |
| 2026-05-06 12:48 | 35.08585 | 139.81393 | 9420 ft | 307 kts | 37° |
| 2026-05-06 12:48 | 35.10230 | 139.83016 | 9151 ft | 298 kts | 37° |
| 2026-05-06 12:48 | 35.11825 | 139.84590 | 8907 ft | 292 kts | 37° |
| 2026-05-06 12:49 | 35.13403 | 139.86149 | 8647 ft | 291 kts | 37° |
| 2026-05-06 12:49 | 35.14979 | 139.87705 | 8340 ft | 293 kts | 37° |
| 2026-05-06 12:49 | 35.16550 | 139.89258 | 8037 ft | 295 kts | 38° |
| 2026-05-06 12:49 | 35.18151 | 139.90841 | 7705 ft | 297 kts | 38° |
| 2026-05-06 12:50 | 35.19746 | 139.92421 | 7382 ft | 293 kts | 38° |
| 2026-05-06 12:50 | 35.21322 | 139.93979 | 7059 ft | 290 kts | 38° |
| 2026-05-06 12:50 | 35.22877 | 139.95521 | 6712 ft | 286 kts | 38° |
| 2026-05-06 12:50 | 35.24416 | 139.97022 | 6396 ft | 280 kts | 32° |
| 2026-05-06 12:51 | 35.25900 | 139.97790 | 6090 ft | 269 kts | 3° |
| 2026-05-06 12:51 | 35.27505 | 139.97496 | 5839 ft | 247 kts | 327° |
| 2026-05-06 12:51 | 35.28893 | 139.96375 | 5630 ft | 237 kts | 321° |
| 2026-05-06 12:51 | 35.30276 | 139.95293 | 5379 ft | 234 kts | 324° |
| 2026-05-06 12:52 | 35.31667 | 139.94275 | 5121 ft | 229 kts | 325° |
| 2026-05-06 12:52 | 35.32995 | 139.93326 | 5038 ft | 215 kts | 324° |
| 2026-05-06 12:52 | 35.34270 | 139.92415 | 4838 ft | 215 kts | 325° |
| 2026-05-06 12:52 | 35.35618 | 139.91447 | 4181 ft | 228 kts | 325° |
| 2026-05-06 12:53 | 35.36990 | 139.90467 | 3768 ft | 226 kts | 326° |
| 2026-05-06 12:53 | 35.38325 | 139.89517 | 3455 ft | 219 kts | 325° |
| 2026-05-06 12:53 | 35.39609 | 139.88601 | 3164 ft | 212 kts | 325° |
| 2026-05-06 12:53 | 35.40857 | 139.87710 | 2902 ft | 204 kts | 325° |
| 2026-05-06 12:54 | 35.42058 | 139.86852 | 2644 ft | 197 kts | 325° |
| 2026-05-06 12:54 | 35.43230 | 139.86014 | 2396 ft | 193 kts | 325° |
| 2026-05-06 12:54 | 35.44363 | 139.85205 | 2109 ft | 183 kts | 325° |
| 2026-05-06 12:54 | 35.45427 | 139.84446 | 1896 ft | 172 kts | 325° |
| 2026-05-06 12:55 | 35.46461 | 139.83707 | 1663 ft | 171 kts | 326° |
| 2026-05-06 12:55 | 35.47471 | 139.82985 | 1434 ft | 167 kts | 326° |
| 2026-05-06 12:55 | 35.48469 | 139.82273 | 1213 ft | 166 kts | 325° |
| 2026-05-06 12:55 | 35.49476 | 139.81553 | 994 ft | 166 kts | 327° |
| 2026-05-06 12:56 | 35.50456 | 139.80840 | 758 ft | 162 kts | 326° |
| 2026-05-06 12:56 | 35.51418 | 139.80138 | 541 ft | 160 kts | 328° |
| 2026-05-06 12:56 | 35.52385 | 139.79477 | 392 ft | 163 kts | 329° |
| 2026-05-06 12:56 | 35.53358 | 139.78770 | 143 ft | 161 kts | 328° |
| 2026-05-06 12:57 | 35.54309 | 139.78105 | 22 ft | 145 kts | 330° |
| 2026-05-06 12:57 | 35.54994 | 139.77619 | 22 ft | 82 kts | 329° |
| 2026-05-06 12:57 | 35.55388 | 139.77372 | 22 ft | 59 kts | 345° |
| 2026-05-06 12:57 | 35.55562 | 139.77361 | 19 ft | 7 kts | 22° |
| 2026-05-06 12:58 | 35.55576 | 139.77378 | 20 ft | 3 kts | 55° |
| 2026-05-06 12:58 | 35.55578 | 139.77451 | 23 ft | 17 kts | 120° |
| 2026-05-06 12:58 | 35.55481 | 139.77529 | 22 ft | 16 kts | 150° |
| 2026-05-06 12:58 | 35.55384 | 139.77599 | 22 ft | 16 kts | 149° |
| 2026-05-06 12:59 | 35.55281 | 139.77673 | 21 ft | 18 kts | 149° |
| 2026-05-06 12:59 | 35.55163 | 139.77755 | 21 ft | 21 kts | 151° |
| 2026-05-06 12:59 | 35.55026 | 139.77852 | 22 ft | 24 kts | 150° |
| 2026-05-06 12:59 | 35.54874 | 139.77961 | 20 ft | 26 kts | 149° |
| 2026-05-06 13:00 | 35.54713 | 139.78075 | 23 ft | 26 kts | 150° |
| 2026-05-06 13:00 | 35.54591 | 139.78214 | 21 ft | 24 kts | 80° |
| 2026-05-06 13:00 | 35.54686 | 139.78219 | 23 ft | 16 kts | 328° |
| 2026-05-06 13:00 | 35.54750 | 139.78214 | 24 ft | 7 kts | 49° |
| 2026-05-06 13:01 | 35.54776 | 139.78256 | 23 ft | 4 kts | 54° |
| 2026-05-06 13:01 | 35.54782 | 139.78266 | 23 ft | 0 kts | 53° |